createdAt,value
2022-09-07T00:01:01.517Z,100.00
2022-09-07T00:03:29.682Z,100.00
2022-09-07T00:05:59.226Z,100.00
2022-09-07T00:08:28.484Z,100.00
2022-09-07T00:10:58.265Z,100.00
2022-09-07T00:13:28.889Z,100.00
2022-09-07T00:15:57.288Z,100.00
2022-09-07T00:18:25.645Z,100.00
2022-09-07T00:21:01.854Z,100.00
2022-09-07T00:23:30.895Z,100.00
2022-09-07T00:26:01.681Z,100.00
2022-09-07T00:28:30.189Z,100.00
2022-09-07T00:30:58.490Z,100.00
2022-09-07T00:33:26.695Z,100.00
2022-09-07T00:35:54.751Z,100.00
2022-09-07T00:38:24.414Z,100.00
2022-09-07T00:40:53.174Z,100.00
2022-09-07T00:43:32.308Z,100.00
2022-09-07T00:46:00.364Z,100.00
2022-09-07T00:48:35.303Z,100.00
2022-09-07T00:51:07.227Z,100.00
2022-09-07T00:53:41.343Z,100.00
2022-09-07T00:56:10.766Z,100.00
2022-09-07T00:58:42.318Z,100.00
2022-09-07T01:01:10.889Z,100.00
2022-09-07T01:03:42.252Z,100.00
2022-09-07T01:06:16.919Z,100.00
2022-09-07T01:08:49.790Z,100.00
2022-09-07T01:11:19.656Z,100.00
2022-09-07T01:13:48.531Z,100.00
2022-09-07T01:16:27.711Z,100.00
2022-09-07T01:19:09.074Z,100.00
2022-09-07T01:21:49.773Z,100.00
2022-09-07T01:24:52.898Z,100.00
2022-09-07T01:28:03.610Z,100.00
2022-09-07T01:30:36.003Z,100.00
2022-09-07T01:33:25.489Z,100.00
2022-09-07T01:36:02.010Z,100.00
2022-09-07T01:38:37.287Z,100.00
2022-09-07T01:41:11.009Z,100.00
2022-09-07T01:43:47.831Z,100.00
2022-09-07T01:46:19.918Z,100.00
2022-09-07T01:48:52.377Z,100.00
2022-09-07T01:51:26.802Z,100.00
2022-09-07T01:53:59.050Z,100.00
2022-09-07T01:56:32.747Z,100.00
2022-09-07T01:59:05.867Z,100.00
2022-09-07T02:01:40.151Z,100.00
2022-09-07T02:04:12.587Z,100.00
2022-09-07T02:06:45.473Z,100.00
2022-09-07T02:09:20.283Z,100.00
2022-09-07T02:11:50.220Z,100.00
2022-09-07T02:14:24.274Z,100.00
2022-09-07T02:16:57.803Z,100.00
2022-09-07T02:19:30.485Z,100.00
2022-09-07T02:22:04.128Z,100.00
2022-09-07T02:24:35.612Z,100.00
2022-09-07T02:27:08.848Z,100.00
2022-09-07T02:29:38.298Z,100.00
2022-09-07T02:32:06.604Z,100.00
2022-09-07T02:34:34.835Z,100.00
2022-09-07T02:37:05.943Z,100.00
2022-09-07T02:39:35.066Z,100.00
2022-09-07T02:42:03.273Z,100.00
2022-09-07T02:44:34.818Z,100.00
2022-09-07T02:47:23.047Z,100.00
2022-09-07T02:50:15.671Z,100.00
2022-09-07T02:52:53.309Z,100.00
2022-09-07T02:55:34.150Z,100.00
2022-09-07T02:58:16.655Z,100.00
2022-09-07T03:00:51.978Z,100.00
2022-09-07T03:03:27.927Z,100.00
2022-09-07T03:06:01.078Z,100.00
2022-09-07T03:08:35.872Z,100.00
2022-09-07T03:11:06.290Z,100.00
2022-09-07T03:13:34.803Z,100.00
2022-09-07T03:16:03.304Z,100.00
2022-09-07T03:18:32.833Z,100.00
2022-09-07T03:21:01.005Z,100.00
2022-09-07T03:23:29.002Z,100.00
2022-09-07T03:25:57.035Z,100.00
2022-09-07T03:28:25.090Z,100.00
2022-09-07T03:30:53.168Z,100.00
2022-09-07T03:33:21.294Z,100.00
2022-09-07T03:35:58.917Z,100.00
2022-09-07T03:38:27.047Z,100.00
2022-09-07T03:41:02.078Z,100.00
2022-09-07T03:43:30.494Z,100.00
2022-09-07T03:46:00.028Z,100.00
2022-09-07T03:48:28.833Z,100.00
2022-09-07T03:50:59.636Z,100.00
2022-09-07T03:53:28.272Z,100.00
2022-09-07T03:56:00.052Z,100.00
2022-09-07T03:58:30.330Z,100.00
2022-09-07T04:00:58.993Z,100.00
2022-09-07T04:03:27.785Z,100.00
2022-09-07T04:05:57.348Z,100.00
2022-09-07T04:08:27.765Z,100.00
2022-09-07T04:10:58.392Z,100.00
2022-09-07T04:13:26.465Z,100.00
2022-09-07T04:15:54.579Z,100.00
2022-09-07T04:18:22.936Z,100.00
2022-09-07T04:20:51.772Z,100.00
2022-09-07T04:23:20.588Z,100.00
2022-09-07T04:25:50.593Z,100.00
2022-09-07T04:28:20.457Z,100.00
2022-09-07T04:30:48.875Z,100.00
2022-09-07T04:33:16.980Z,100.00
2022-09-07T04:35:44.992Z,100.00
2022-09-07T04:38:16.264Z,100.00
2022-09-07T04:40:44.738Z,100.00
2022-09-07T04:43:14.171Z,100.00
2022-09-07T04:45:42.668Z,100.00
2022-09-07T04:48:10.749Z,100.00
2022-09-07T04:50:38.727Z,100.00
2022-09-07T04:53:06.732Z,100.00
2022-09-07T04:55:34.808Z,100.00
2022-09-07T04:58:08.668Z,100.00
2022-09-07T05:00:39.194Z,100.00
2022-09-07T05:03:07.524Z,100.00
2022-09-07T05:05:38.459Z,100.00
2022-09-07T05:08:06.849Z,100.00
2022-09-07T05:10:34.939Z,100.00
2022-09-07T05:13:03.242Z,100.00
2022-09-07T05:15:31.752Z,100.00
2022-09-07T05:18:02.122Z,100.00
2022-09-07T05:20:30.266Z,100.00
2022-09-07T05:22:59.671Z,100.00
2022-09-07T05:25:29.127Z,100.00
2022-09-07T05:27:57.203Z,100.00
2022-09-07T05:33:14.663Z,100.00
2022-09-07T05:35:42.680Z,100.00
2022-09-07T05:38:10.669Z,100.00
2022-09-07T05:40:40.800Z,100.00
2022-09-07T05:43:10.443Z,100.00
2022-09-07T05:45:38.504Z,100.00
2022-09-07T05:48:06.571Z,100.00
2022-09-07T05:50:36.561Z,100.00
2022-09-07T05:53:05.298Z,100.00
2022-09-07T05:55:33.487Z,100.00
2022-09-07T05:58:01.566Z,100.00
2022-09-07T06:00:29.656Z,100.00
2022-09-07T06:02:57.760Z,100.00
2022-09-07T06:05:26.149Z,100.00
2022-09-07T06:07:55.568Z,100.00
2022-09-07T06:13:11.981Z,100.00
2022-09-07T06:15:40.065Z,100.00
2022-09-07T06:18:08.126Z,100.00
2022-09-07T06:20:36.171Z,100.00
2022-09-07T06:23:05.588Z,100.00
2022-09-07T06:25:33.628Z,100.00
2022-09-07T06:28:02.086Z,100.00
2022-09-07T06:30:30.402Z,100.00
2022-09-07T06:32:58.474Z,100.00
2022-09-07T06:35:26.558Z,100.00
2022-09-07T06:37:54.964Z,100.00
2022-09-07T06:40:24.402Z,100.00
2022-09-07T06:42:52.436Z,100.00
2022-09-07T06:45:20.493Z,100.00
2022-09-07T06:47:48.856Z,100.00
2022-09-07T06:50:17.790Z,100.00
2022-09-07T06:55:35.289Z,100.00
2022-09-07T06:58:03.308Z,100.00
2022-09-07T07:00:31.306Z,100.00
2022-09-07T07:02:59.429Z,100.00
2022-09-07T07:05:27.827Z,100.00
2022-09-07T07:07:56.410Z,100.00
2022-09-07T07:10:25.145Z,100.00
2022-09-07T07:12:58.099Z,100.00
2022-09-07T07:15:28.628Z,100.00
2022-09-07T07:18:05.100Z,100.00
2022-09-07T07:20:37.876Z,100.00
2022-09-07T07:23:06.651Z,100.00
2022-09-07T07:25:35.322Z,100.00
2022-09-07T07:30:56.262Z,100.00
2022-09-07T07:33:24.348Z,100.00
2022-09-07T07:35:52.396Z,100.00
2022-09-07T07:44:00.499Z,100.00
2022-09-07T07:46:30.362Z,100.00
2022-09-07T07:48:58.713Z,100.00
2022-09-07T07:51:26.859Z,100.00
2022-09-07T07:53:55.443Z,100.00
2022-09-07T07:56:23.872Z,100.00
2022-09-07T07:58:52.561Z,100.00
2022-09-07T08:01:21.980Z,100.00
2022-09-07T08:03:50.365Z,100.00
2022-09-07T08:06:20.193Z,100.00
2022-09-07T08:08:48.303Z,100.00
2022-09-07T08:11:18.599Z,100.00
2022-09-07T08:13:49.631Z,100.00
2022-09-07T08:16:18.550Z,100.00
2022-09-07T08:18:49.473Z,100.00
2022-09-07T08:21:18.571Z,100.00
2022-09-07T08:23:46.644Z,100.00
2022-09-07T08:26:14.885Z,100.00
2022-09-07T08:28:43.994Z,100.00
2022-09-07T08:31:14.286Z,100.00
2022-09-07T08:33:43.293Z,100.00
2022-09-07T08:36:14.703Z,100.00
2022-09-07T08:38:42.974Z,100.00
2022-09-07T08:41:35.921Z,100.00
2022-09-07T08:44:07.531Z,100.00
2022-09-07T08:46:39.784Z,100.00
2022-09-07T08:49:14.114Z,100.00
2022-09-07T08:51:49.197Z,100.00
2022-09-07T08:54:17.939Z,100.00
2022-09-07T08:59:41.853Z,100.00
2022-09-07T09:02:35.095Z,100.00
2022-09-07T09:05:21.204Z,100.00
2022-09-07T09:08:02.778Z,100.00
2022-09-07T09:10:37.709Z,100.00
2022-09-07T09:13:16.901Z,100.00
2022-09-07T09:15:54.245Z,100.00
2022-09-07T09:18:35.196Z,100.00
2022-09-07T09:21:03.830Z,100.00
2022-09-07T09:23:38.693Z,100.00
2022-09-07T09:26:13.516Z,100.00
2022-09-07T09:28:42.286Z,100.00
2022-09-07T09:31:18.701Z,100.00
2022-09-07T09:34:11.257Z,100.00
2022-09-07T09:36:45.201Z,100.00
2022-09-07T09:39:33.338Z,100.00
2022-09-07T09:42:16.482Z,100.00
2022-09-07T09:44:47.119Z,100.00
2022-09-07T09:47:31.284Z,100.00
2022-09-07T09:50:03.132Z,100.00
2022-09-07T09:52:47.788Z,100.00
2022-09-07T09:55:36.050Z,100.00
2022-09-07T10:06:22.251Z,100.00
2022-09-07T10:08:57.422Z,100.00
2022-09-07T10:14:29.196Z,100.00
2022-09-07T10:16:58.333Z,100.00
2022-09-07T10:19:33.474Z,100.00
2022-09-07T10:22:03.285Z,100.00
2022-09-07T10:24:39.158Z,100.00
2022-09-07T10:27:21.968Z,99.57
2022-09-07T10:29:51.483Z,93.43
2022-09-07T10:32:27.138Z,82.39
2022-09-07T10:35:06.347Z,75.40
2022-09-07T10:37:43.752Z,74.94
2022-09-07T10:40:25.145Z,78.00
2022-09-07T10:46:55.835Z,73.81
2022-09-07T10:49:17.334Z,68.79
2022-09-07T10:51:59.227Z,71.30
2022-09-07T10:54:37.398Z,73.44
2022-09-07T10:57:24.719Z,73.19
2022-09-07T11:00:11.374Z,70.34
2022-09-07T11:06:04.104Z,63.28
2022-09-07T11:14:26.749Z,62.29
2022-09-07T11:16:58.931Z,62.26
2022-09-07T11:19:35.640Z,63.22
2022-09-07T11:22:19.076Z,61.17
2022-09-07T11:27:45.661Z,63.19
2022-09-07T11:30:24.831Z,66.13
2022-09-07T11:33:05.237Z,63.37
2022-09-07T11:35:46.434Z,58.48
2022-09-07T11:38:22.832Z,61.02
2022-09-07T11:41:00.753Z,61.40
2022-09-07T11:43:32.569Z,58.26
2022-09-07T11:46:05.962Z,59.17
2022-09-07T11:48:39.094Z,59.04
2022-09-07T11:51:15.211Z,57.63
2022-09-07T11:53:47.256Z,56.22
2022-09-07T11:56:21.679Z,57.68
2022-09-07T11:59:15.759Z,58.41
2022-09-07T12:01:55.567Z,55.65
2022-09-07T12:04:40.372Z,55.85
2022-09-07T12:07:28.074Z,56.91
2022-09-07T12:10:17.024Z,56.96
2022-09-07T12:13:02.430Z,54.86
2022-09-07T12:15:39.522Z,53.76
2022-09-07T12:18:24.627Z,54.34
2022-09-07T12:20:52.705Z,53.39
2022-09-07T12:23:28.822Z,51.59
2022-09-07T12:26:53.822Z,52.28
2022-09-07T12:29:25.607Z,51.56
2022-09-07T12:31:59.658Z,52.20
2022-09-07T12:34:52.467Z,52.25
2022-09-07T12:37:44.449Z,51.85
2022-09-07T12:40:57.812Z,51.59
2022-09-07T12:43:52.925Z,52.15
2022-09-07T12:46:36.878Z,51.43
2022-09-07T12:49:19.787Z,53.73
2022-09-07T12:52:03.273Z,51.83
2022-09-07T12:54:42.734Z,53.36
2022-09-07T12:57:29.303Z,54.14
2022-09-07T13:00:07.312Z,53.06
2022-09-07T13:03:49.359Z,52.38
2022-09-07T13:06:12.073Z,51.73
2022-09-07T13:08:55.883Z,50.44
2022-09-07T13:11:34.098Z,50.07
2022-09-07T13:14:10.761Z,51.43
2022-09-07T13:20:08.350Z,52.78
2022-09-07T13:23:24.004Z,50.20
2022-09-07T13:25:57.508Z,50.60
2022-09-07T13:28:37.967Z,50.05
2022-09-07T13:31:34.672Z,52.13
2022-09-07T13:34:46.289Z,53.42
2022-09-07T13:37:21.704Z,50.77
2022-09-07T13:39:54.809Z,51.48
2022-09-07T13:42:26.653Z,49.95
2022-09-07T13:44:57.875Z,51.49
2022-09-07T13:47:43.425Z,49.98
2022-09-07T13:50:28.987Z,50.38
2022-09-07T13:53:24.094Z,49.82
2022-09-07T13:56:04.146Z,49.92
2022-09-07T13:58:36.652Z,49.15
2022-09-07T14:01:07.681Z,48.61
2022-09-07T14:03:41.050Z,48.67
2022-09-07T14:06:27.721Z,48.76
2022-09-07T14:08:58.069Z,47.95
2022-09-07T14:11:29.486Z,49.63
2022-09-07T14:14:18.116Z,48.21
2022-09-07T14:16:50.039Z,49.44
2022-09-07T14:19:21.284Z,48.61
2022-09-07T14:22:02.383Z,48.33
2022-09-07T14:24:33.421Z,48.24
2022-09-07T14:27:01.802Z,47.99
2022-09-07T14:29:32.156Z,47.13
2022-09-07T14:32:02.123Z,46.63
2022-09-07T14:34:34.766Z,46.84
2022-09-07T14:37:08.531Z,46.40
2022-09-07T14:39:40.352Z,46.60
2022-09-07T14:42:11.992Z,45.93
2022-09-07T14:44:43.117Z,48.18
2022-09-07T14:47:25.030Z,49.86
2022-09-07T14:49:55.705Z,46.50
2022-09-07T14:52:32.783Z,47.82
2022-09-07T14:55:04.501Z,48.57
2022-09-07T14:57:33.638Z,49.39
2022-09-07T15:00:20.619Z,49.25
2022-09-07T15:02:48.874Z,49.12
2022-09-07T15:05:28.355Z,50.06
2022-09-07T15:08:02.749Z,49.46
2022-09-07T15:10:38.103Z,48.61
2022-09-07T15:13:22.907Z,50.40
2022-09-07T15:15:59.032Z,50.17
2022-09-07T15:18:52.392Z,49.64
2022-09-07T15:21:20.363Z,50.86
2022-09-07T15:23:52.443Z,51.12
2022-09-07T15:29:11.559Z,52.40
2022-09-07T15:31:42.216Z,52.92
2022-09-07T15:34:14.255Z,52.05
2022-09-07T15:36:44.304Z,52.97
2022-09-07T15:39:18.526Z,53.21
2022-09-07T15:41:47.034Z,54.05
2022-09-07T15:44:15.903Z,53.08
2022-09-07T15:47:42.418Z,54.52
2022-09-07T15:49:31.934Z,54.71
2022-09-07T15:52:07.106Z,53.08
2022-09-07T15:54:39.605Z,54.59
2022-09-07T15:59:56.059Z,56.10
2022-09-07T16:05:11.993Z,57.00
2022-09-07T16:10:31.621Z,57.79
2022-09-07T16:13:03.695Z,59.42
2022-09-07T16:15:45.114Z,61.84
2022-09-07T16:18:17.876Z,65.66
2022-09-07T16:20:47.359Z,68.91
2022-09-07T16:23:17.219Z,71.72
2022-09-07T16:25:58.110Z,72.72
2022-09-07T16:28:26.609Z,75.46
2022-09-07T16:30:55.914Z,77.70
2022-09-07T16:33:32.744Z,79.91
2022-09-07T16:36:06.972Z,83.69
2022-09-07T16:38:50.907Z,85.97
2022-09-07T16:41:22.916Z,87.06
2022-09-07T16:43:51.282Z,89.14
2022-09-07T16:46:21.350Z,92.94
2022-09-07T16:48:50.233Z,96.36
2022-09-07T16:51:21.330Z,98.14
2022-09-07T16:53:51.207Z,100.00
2022-09-07T16:56:23.301Z,100.00
2022-09-07T16:58:53.242Z,100.00
2022-09-07T17:01:23.165Z,100.00
2022-09-07T17:03:51.890Z,100.00
2022-09-07T17:06:21.912Z,100.00
2022-09-07T17:08:49.926Z,100.00
2022-09-07T17:11:24.342Z,100.00
2022-09-07T17:13:53.916Z,100.00
2022-09-07T17:16:26.597Z,100.00
2022-09-07T17:21:43.575Z,100.00
2022-09-07T17:24:12.872Z,100.00
2022-09-07T17:26:42.768Z,100.00
2022-09-07T17:29:13.168Z,100.00
2022-09-07T17:34:29.437Z,100.00
2022-09-07T17:36:57.529Z,100.00
2022-09-07T17:39:25.518Z,100.00
2022-09-07T17:41:55.126Z,100.00
2022-09-07T17:44:23.724Z,100.00
2022-09-07T17:46:52.343Z,100.00
2022-09-07T17:49:20.255Z,100.00
2022-09-07T17:51:48.323Z,100.00
2022-09-07T17:54:17.963Z,100.00
2022-09-07T17:56:46.493Z,100.00
2022-09-07T18:02:03.698Z,100.00
2022-09-07T18:04:31.643Z,100.00
2022-09-07T18:06:59.639Z,100.00
2022-09-07T18:09:27.793Z,100.00
2022-09-07T18:11:55.954Z,100.00
2022-09-07T18:14:25.444Z,100.00
2022-09-07T18:16:53.818Z,100.00
2022-09-07T18:19:21.744Z,100.00
2022-09-07T18:21:50.645Z,100.00
2022-09-07T18:24:22.890Z,100.00
2022-09-07T18:26:52.792Z,100.00
2022-09-07T18:29:37.450Z,100.00
2022-09-07T18:32:09.901Z,100.00
2022-09-07T18:34:41.139Z,100.00
2022-09-07T18:37:09.759Z,100.00
2022-09-07T18:39:37.981Z,100.00
2022-09-07T18:42:07.775Z,100.00
2022-09-07T18:47:29.162Z,100.00
2022-09-07T18:49:58.126Z,100.00
2022-09-07T18:55:14.795Z,100.00
2022-09-07T18:57:43.046Z,100.00
2022-09-07T19:00:13.421Z,100.00
2022-09-07T19:02:43.034Z,100.00
2022-09-07T19:08:03.603Z,100.00
2022-09-07T19:10:35.446Z,100.00
2022-09-07T19:13:04.039Z,100.00
2022-09-07T19:15:37.402Z,100.00
2022-09-07T19:18:08.618Z,100.00
2022-09-07T19:20:37.017Z,100.00
2022-09-07T19:23:05.415Z,100.00
2022-09-07T19:25:33.372Z,100.00
2022-09-07T19:28:01.505Z,100.00
2022-09-07T19:30:30.472Z,100.00
2022-09-07T19:33:02.129Z,100.00
2022-09-07T19:35:37.855Z,100.00
2022-09-07T19:38:05.967Z,100.00
2022-09-07T19:40:33.969Z,100.00
2022-09-07T19:43:01.994Z,100.00
2022-09-07T19:45:29.981Z,100.00
2022-09-07T19:47:58.275Z,100.00
2022-09-07T19:50:26.266Z,100.00
2022-09-07T19:52:55.554Z,100.00
2022-09-07T19:55:23.481Z,100.00
2022-09-07T19:57:52.625Z,100.00
2022-09-07T20:00:20.666Z,100.00
2022-09-07T20:02:49.647Z,100.00
2022-09-07T20:05:18.015Z,100.00
2022-09-07T20:07:46.019Z,100.00
2022-09-07T20:10:15.514Z,100.00
2022-09-07T20:12:43.519Z,100.00
2022-09-07T20:15:11.577Z,100.00
2022-09-07T20:17:39.521Z,100.00
2022-09-07T20:20:08.439Z,100.00
2022-09-07T20:22:36.336Z,100.00
2022-09-07T20:25:04.579Z,100.00
2022-09-07T20:27:35.794Z,100.00
2022-09-07T20:30:03.880Z,100.00
2022-09-07T20:32:31.970Z,100.00
2022-09-07T20:35:01.492Z,100.00
2022-09-07T20:37:29.556Z,100.00
2022-09-07T20:39:57.518Z,100.00
2022-09-07T20:42:25.520Z,100.00
2022-09-07T20:44:54.927Z,100.00
2022-09-07T20:47:22.917Z,100.00
2022-09-07T20:49:52.265Z,100.00
2022-09-07T20:52:20.205Z,100.00
2022-09-07T20:54:48.122Z,100.00
2022-09-07T20:57:16.112Z,100.00
2022-09-07T20:59:44.031Z,100.00
2022-09-07T21:02:13.656Z,100.00
2022-09-07T21:04:42.225Z,100.00
2022-09-07T21:07:10.256Z,100.00
2022-09-07T21:09:38.152Z,100.00
2022-09-07T21:12:06.487Z,100.00
2022-09-07T21:14:34.468Z,100.00
2022-09-07T21:17:02.425Z,100.00
2022-09-07T21:19:31.895Z,100.00
2022-09-07T21:22:00.074Z,100.00
2022-09-07T21:24:28.368Z,100.00
2022-09-07T21:26:56.348Z,100.00
2022-09-07T21:29:25.749Z,100.00
2022-09-07T21:31:54.444Z,100.00
2022-09-07T21:34:23.241Z,100.00
2022-09-07T21:36:53.400Z,100.00
2022-09-07T21:39:21.897Z,100.00
2022-09-07T21:41:49.857Z,100.00
2022-09-07T21:44:18.196Z,100.00
2022-09-07T21:46:46.161Z,100.00
2022-09-07T21:49:14.172Z,100.00
2022-09-07T21:51:42.189Z,100.00
2022-09-07T21:54:11.555Z,100.00
2022-09-07T21:56:44.374Z,100.00
2022-09-07T21:59:14.777Z,100.00
2022-09-07T22:01:42.943Z,100.00
2022-09-07T22:04:10.880Z,100.00
2022-09-07T22:06:39.897Z,100.00
2022-09-07T22:09:08.329Z,100.00
2022-09-07T22:11:37.644Z,100.00
2022-09-07T22:14:06.867Z,100.00
2022-09-07T22:16:36.113Z,100.00
2022-09-07T22:19:04.521Z,100.00
2022-09-07T22:21:32.518Z,100.00
2022-09-07T22:24:02.413Z,100.00
2022-09-07T22:26:32.024Z,100.00
2022-09-07T22:29:01.451Z,100.00
2022-09-07T22:31:31.281Z,100.00
2022-09-07T22:34:00.365Z,100.00
2022-09-07T22:36:30.872Z,100.00
2022-09-07T22:39:01.209Z,100.00
2022-09-07T22:41:30.569Z,100.00
2022-09-07T22:43:59.003Z,100.00
2022-09-07T22:46:30.274Z,100.00
2022-09-07T22:48:59.756Z,100.00
2022-09-07T22:51:28.442Z,100.00
2022-09-07T22:53:57.343Z,100.00
2022-09-07T22:56:27.533Z,100.00
2022-09-07T22:58:57.492Z,100.00
2022-09-07T23:01:26.241Z,100.00
2022-09-07T23:03:56.158Z,100.00
2022-09-07T23:06:26.432Z,100.00
2022-09-07T23:08:55.937Z,100.00
2022-09-07T23:11:24.887Z,100.00
2022-09-07T23:13:54.019Z,100.00
2022-09-07T23:16:22.698Z,100.00
2022-09-07T23:18:50.911Z,100.00
2022-09-07T23:21:20.559Z,100.00
2022-09-07T23:23:52.774Z,100.00
2022-09-07T23:26:21.054Z,100.00
2022-09-07T23:28:52.275Z,100.00
2022-09-07T23:31:20.735Z,100.00
2022-09-07T23:33:48.819Z,100.00
2022-09-07T23:36:17.483Z,100.00
2022-09-07T23:38:47.247Z,100.00
2022-09-07T23:41:15.601Z,100.00
2022-09-07T23:43:44.111Z,100.00
2022-09-07T23:46:12.907Z,100.00
2022-09-07T23:48:41.232Z,100.00
2022-09-07T23:51:09.174Z,100.00
2022-09-07T23:53:37.163Z,100.00
2022-09-07T23:56:07.409Z,100.00
2022-09-07T23:58:35.712Z,100.00
